sensor_id;sensor_type;location;lat;lon;timestamp;pressure;altitude;pressure_sealevel;temperature;humidity
72210;BME280;60113;48.762;12.302;2023-05-23T00:00:07;96811.78;;;11.98;67.87
72210;BME280;60113;48.762;12.302;2023-05-23T00:02:32;96813.00;;;11.94;60.94
72210;BME280;60113;48.762;12.302;2023-05-23T00:04:58;96811.75;;;11.88;73.41
72210;BME280;60113;48.762;12.302;2023-05-23T00:07:28;96810.25;;;11.86;66.71
72210;BME280;60113;48.762;12.302;2023-05-23T00:09:53;96819.09;;;11.85;68.75
72210;BME280;60113;48.762;12.302;2023-05-23T00:12:18;96824.34;;;11.85;72.14
72210;BME280;60113;48.762;12.302;2023-05-23T00:14:44;96825.63;;;11.91;70.96
72210;BME280;60113;48.762;12.302;2023-05-23T00:17:09;96822.84;;;11.92;66.74
72210;BME280;60113;48.762;12.302;2023-05-23T00:19:35;96828.13;;;11.92;64.12
72210;BME280;60113;48.762;12.302;2023-05-23T00:22:00;96825.63;;;11.91;62.25
72210;BME280;60113;48.762;12.302;2023-05-23T00:24:27;96819.78;;;11.87;69.50
72210;BME280;60113;48.762;12.302;2023-05-23T00:26:52;96830.72;;;11.82;72.44
72210;BME280;60113;48.762;12.302;2023-05-23T00:29:18;96832.78;;;11.79;64.53
72210;BME280;60113;48.762;12.302;2023-05-23T00:31:44;96822.53;;;11.75;60.30
72210;BME280;60113;48.762;12.302;2023-05-23T00:34:11;96824.75;;;11.70;71.03
72210;BME280;60113;48.762;12.302;2023-05-23T00:36:37;96822.94;;;11.71;75.22
72210;BME280;60113;48.762;12.302;2023-05-23T00:39:03;96820.44;;;11.69;61.30
72210;BME280;60113;48.762;12.302;2023-05-23T00:41:29;96830.97;;;11.69;67.62
72210;BME280;60113;48.762;12.302;2023-05-23T00:43:56;96823.91;;;11.70;76.98
72210;BME280;60113;48.762;12.302;2023-05-23T00:46:25;96830.16;;;11.69;70.62
72210;BME280;60113;48.762;12.302;2023-05-23T00:48:51;96839.56;;;11.71;65.64
72210;BME280;60113;48.762;12.302;2023-05-23T00:51:17;96830.69;;;11.72;64.55
72210;BME280;60113;48.762;12.302;2023-05-23T00:53:43;96832.66;;;11.70;59.45
72210;BME280;60113;48.762;12.302;2023-05-23T00:56:09;96831.94;;;11.68;68.69
72210;BME280;60113;48.762;12.302;2023-05-23T00:58:36;96827.66;;;11.67;65.69
72210;BME280;60113;48.762;12.302;2023-05-23T01:01:02;96830.28;;;11.67;64.27
72210;BME280;60113;48.762;12.302;2023-05-23T01:03:27;96834.56;;;11.68;59.76
72210;BME280;60113;48.762;12.302;2023-05-23T01:05:55;96830.28;;;11.67;63.82
72210;BME280;60113;48.762;12.302;2023-05-23T01:08:20;96831.34;;;11.65;63.21
72210;BME280;60113;48.762;12.302;2023-05-23T01:10:46;96839.66;;;11.60;64.41
72210;BME280;60113;48.762;12.302;2023-05-23T01:13:23;96840.91;;;11.56;62.28
72210;BME280;60113;48.762;12.302;2023-05-23T01:16:03;96830.06;;;11.49;67.40
72210;BME280;60113;48.762;12.302;2023-05-23T01:18:39;96835.59;;;11.46;68.60
72210;BME280;60113;48.762;12.302;2023-05-23T01:21:13;96839.31;;;11.43;67.78
72210;BME280;60113;48.762;12.302;2023-05-23T01:29:01;96843.19;;;11.39;70.08
72210;BME280;60113;48.762;12.302;2023-05-23T01:31:31;96834.19;;;11.42;72.57
72210;BME280;60113;48.762;12.302;2023-05-23T01:33:58;96843.47;;;11.46;64.27
72210;BME280;60113;48.762;12.302;2023-05-23T01:36:25;96838.94;;;11.48;73.80
72210;BME280;60113;48.762;12.302;2023-05-23T01:38:50;96843.34;;;11.47;69.26
72210;BME280;60113;48.762;12.302;2023-05-23T01:41:16;96846.94;;;11.46;62.62
72210;BME280;60113;48.762;12.302;2023-05-23T01:43:41;96835.72;;;11.44;73.51
72210;BME280;60113;48.762;12.302;2023-05-23T01:46:07;96842.53;;;11.47;70.26
72210;BME280;60113;48.762;12.302;2023-05-23T01:48:33;96845.72;;;11.50;68.35
72210;BME280;60113;48.762;12.302;2023-05-23T01:51:00;96848.06;;;11.54;72.72
72210;BME280;60113;48.762;12.302;2023-05-23T01:53:26;96853.22;;;11.55;66.52
72210;BME280;60113;48.762;12.302;2023-05-23T01:55:53;96858.34;;;11.57;70.21
72210;BME280;60113;48.762;12.302;2023-05-23T01:58:18;96861.41;;;11.62;75.06
72210;BME280;60113;48.762;12.302;2023-05-23T02:00:44;96857.41;;;11.68;77.16
72210;BME280;60113;48.762;12.302;2023-05-23T02:03:10;96864.50;;;11.77;67.24
72210;BME280;60113;48.762;12.302;2023-05-23T02:05:35;96867.03;;;11.88;65.51
72210;BME280;60113;48.762;12.302;2023-05-23T02:08:01;96874.00;;;11.99;69.26
72210;BME280;60113;48.762;12.302;2023-05-23T02:10:26;96869.97;;;12.05;67.82
72210;BME280;60113;48.762;12.302;2023-05-23T02:12:52;96867.94;;;12.09;72.44
72210;BME280;60113;48.762;12.302;2023-05-23T02:15:17;96863.09;;;12.14;64.87
72210;BME280;60113;48.762;12.302;2023-05-23T02:17:42;96864.22;;;12.21;69.24
72210;BME280;60113;48.762;12.302;2023-05-23T02:20:08;96860.06;;;12.29;70.20
72210;BME280;60113;48.762;12.302;2023-05-23T02:22:37;96867.00;;;12.40;70.61
72210;BME280;60113;48.762;12.302;2023-05-23T02:25:03;96866.75;;;12.53;72.36
72210;BME280;60113;48.762;12.302;2023-05-23T02:27:28;96863.81;;;12.66;77.21
72210;BME280;60113;48.762;12.302;2023-05-23T02:29:54;96865.47;;;12.77;70.60
72210;BME280;60113;48.762;12.302;2023-05-23T02:32:19;96860.88;;;12.88;76.22
72210;BME280;60113;48.762;12.302;2023-05-23T02:34:45;96861.28;;;12.94;70.26
72210;BME280;60113;48.762;12.302;2023-05-23T02:37:14;96862.22;;;13.03;66.13
72210;BME280;60113;48.762;12.302;2023-05-23T02:39:41;96870.28;;;13.11;67.77
72210;BME280;60113;48.762;12.302;2023-05-23T02:42:07;96867.34;;;13.14;69.34
72210;BME280;60113;48.762;12.302;2023-05-23T02:44:32;96866.94;;;13.19;66.20
72210;BME280;60113;48.762;12.302;2023-05-23T02:46:58;96867.47;;;13.22;64.48
72210;BME280;60113;48.762;12.302;2023-05-23T02:49:23;96869.13;;;13.23;64.33
72210;BME280;60113;48.762;12.302;2023-05-23T02:51:49;96869.00;;;13.25;69.28
72210;BME280;60113;48.762;12.302;2023-05-23T02:54:14;96869.84;;;13.25;68.76
72210;BME280;60113;48.762;12.302;2023-05-23T02:56:40;96874.81;;;13.29;65.31
72210;BME280;60113;48.762;12.302;2023-05-23T02:59:05;96872.19;;;13.29;64.18
72210;BME280;60113;48.762;12.302;2023-05-23T03:01:31;96867.72;;;13.29;67.20
72210;BME280;60113;48.762;12.302;2023-05-23T03:03:57;96874.00;;;13.28;70.48
72210;BME280;60113;48.762;12.302;2023-05-23T03:06:22;96869.69;;;13.27;69.61
72210;BME280;60113;48.762;12.302;2023-05-23T03:08:47;96870.66;;;13.26;70.69
72210;BME280;60113;48.762;12.302;2023-05-23T03:11:13;96869.84;;;13.25;68.59
72210;BME280;60113;48.762;12.302;2023-05-23T03:13:39;96867.72;;;13.29;81.86
72210;BME280;60113;48.762;12.302;2023-05-23T03:16:04;96867.59;;;13.31;64.93
72210;BME280;60113;48.762;12.302;2023-05-23T03:18:30;96867.00;;;13.37;70.71
72210;BME280;60113;48.762;12.302;2023-05-23T03:20:58;96863.94;;;13.42;69.40
72210;BME280;60113;48.762;12.302;2023-05-23T03:23:24;96864.50;;;13.45;71.71
72210;BME280;60113;48.762;12.302;2023-05-23T03:25:49;96869.38;;;13.50;67.04
72210;BME280;60113;48.762;12.302;2023-05-23T03:28:15;96870.72;;;13.54;68.44
72210;BME280;60113;48.762;12.302;2023-05-23T03:30:40;96859.88;;;13.57;65.73
72210;BME280;60113;48.762;12.302;2023-05-23T03:33:05;96858.31;;;13.65;64.58
72210;BME280;60113;48.762;12.302;2023-05-23T03:35:31;96862.88;;;13.72;64.44
72210;BME280;60113;48.762;12.302;2023-05-23T03:37:57;96858.81;;;13.78;66.58
72210;BME280;60113;48.762;12.302;2023-05-23T03:40:22;96860.88;;;13.84;63.71
72210;BME280;60113;48.762;12.302;2023-05-23T03:43:00;96870.56;;;13.94;67.65
72210;BME280;60113;48.762;12.302;2023-05-23T03:45:26;96868.44;;;13.97;64.59
72210;BME280;60113;48.762;12.302;2023-05-23T03:47:51;96861.06;;;14.01;65.86
72210;BME280;60113;48.762;12.302;2023-05-23T03:50:16;96862.56;;;14.04;67.58
72210;BME280;60113;48.762;12.302;2023-05-23T03:52:42;96865.75;;;14.07;62.35
72210;BME280;60113;48.762;12.302;2023-05-23T03:55:08;96866.41;;;14.09;66.18
72210;BME280;60113;48.762;12.302;2023-05-23T03:57:33;96867.94;;;14.12;64.94
72210;BME280;60113;48.762;12.302;2023-05-23T03:59:58;96866.09;;;14.12;63.96
72210;BME280;60113;48.762;12.302;2023-05-23T04:02:25;96865.97;;;14.14;68.26
72210;BME280;60113;48.762;12.302;2023-05-23T04:04:50;96865.00;;;14.15;66.23
72210;BME280;60113;48.762;12.302;2023-05-23T04:07:18;96870.28;;;14.15;67.42
72210;BME280;60113;48.762;12.302;2023-05-23T04:09:43;96868.31;;;14.17;65.27
72210;BME280;60113;48.762;12.302;2023-05-23T04:12:09;96874.13;;;14.21;64.24
72210;BME280;60113;48.762;12.302;2023-05-23T04:14:35;96869.53;;;14.23;69.96
72210;BME280;60113;48.762;12.302;2023-05-23T04:17:00;96873.00;;;14.23;67.99
72210;BME280;60113;48.762;12.302;2023-05-23T04:19:25;96868.56;;;14.24;66.97
72210;BME280;60113;48.762;12.302;2023-05-23T04:21:51;96871.75;;;14.28;64.99
72210;BME280;60113;48.762;12.302;2023-05-23T04:24:16;96884.81;;;14.29;68.18
72210;BME280;60113;48.762;12.302;2023-05-23T04:26:42;96886.59;;;14.29;66.69
72210;BME280;60113;48.762;12.302;2023-05-23T04:29:07;96885.59;;;14.30;63.99
72210;BME280;60113;48.762;12.302;2023-05-23T04:31:33;96886.44;;;14.30;67.82
72210;BME280;60113;48.762;12.302;2023-05-23T04:33:59;96883.81;;;14.30;67.90
72210;BME280;60113;48.762;12.302;2023-05-23T04:36:24;96887.97;;;14.33;66.59
72210;BME280;60113;48.762;12.302;2023-05-23T04:38:50;96895.72;;;14.34;65.49
72210;BME280;60113;48.762;12.302;2023-05-23T04:41:15;96886.41;;;14.40;68.92
72210;BME280;60113;48.762;12.302;2023-05-23T04:43:41;96902.09;;;14.42;64.73
72210;BME280;60113;48.762;12.302;2023-05-23T04:46:09;96900.97;;;14.44;63.65
72210;BME280;60113;48.762;12.302;2023-05-23T04:48:35;96903.59;;;14.44;65.19
72210;BME280;60113;48.762;12.302;2023-05-23T04:51:01;96906.94;;;14.46;63.81
72210;BME280;60113;48.762;12.302;2023-05-23T04:53:36;96901.50;;;14.48;63.98
72210;BME280;60113;48.762;12.302;2023-05-23T04:56:01;96898.72;;;14.49;64.46
72210;BME280;60113;48.762;12.302;2023-05-23T04:58:27;96900.38;;;14.50;62.62
72210;BME280;60113;48.762;12.302;2023-05-23T05:00:52;96902.00;;;14.52;66.13
72210;BME280;60113;48.762;12.302;2023-05-23T05:03:18;96897.97;;;14.57;63.20
72210;BME280;60113;48.762;12.302;2023-05-23T05:05:43;96900.00;;;14.63;64.38
72210;BME280;60113;48.762;12.302;2023-05-23T05:08:09;96902.66;;;14.82;62.98
72210;BME280;60113;48.762;12.302;2023-05-23T05:10:35;96907.88;;;15.18;62.08
72210;BME280;60113;48.762;12.302;2023-05-23T05:13:01;96924.53;;;15.63;63.25
72210;BME280;60113;48.762;12.302;2023-05-23T05:15:26;96913.16;;;16.06;65.00
72210;BME280;60113;48.762;12.302;2023-05-23T05:17:52;96919.25;;;16.50;65.79
72210;BME280;60113;48.762;12.302;2023-05-23T05:20:17;96911.03;;;16.86;64.49
72210;BME280;60113;48.762;12.302;2023-05-23T05:22:44;96920.34;;;17.24;65.11
72210;BME280;60113;48.762;12.302;2023-05-23T05:25:10;96917.09;;;17.54;68.28
72210;BME280;60113;48.762;12.302;2023-05-23T05:27:35;96915.91;;;17.73;67.36
72210;BME280;60113;48.762;12.302;2023-05-23T05:30:08;96918.16;;;17.93;66.62
72210;BME280;60113;48.762;12.302;2023-05-23T05:32:34;96909.97;;;18.11;66.58
72210;BME280;60113;48.762;12.302;2023-05-23T05:35:00;96916.88;;;18.29;66.38
72210;BME280;60113;48.762;12.302;2023-05-23T05:37:26;96919.59;;;18.44;66.02
72210;BME280;60113;48.762;12.302;2023-05-23T05:39:52;96919.38;;;18.54;66.97
72210;BME280;60113;48.762;12.302;2023-05-23T05:42:19;96921.22;;;18.53;67.36
72210;BME280;60113;48.762;12.302;2023-05-23T05:44:44;96932.34;;;18.57;66.64
72210;BME280;60113;48.762;12.302;2023-05-23T05:47:10;96925.97;;;18.66;66.78
72210;BME280;60113;48.762;12.302;2023-05-23T05:49:35;96925.47;;;18.62;67.92
72210;BME280;60113;48.762;12.302;2023-05-23T05:52:00;96938.13;;;18.84;66.80
72210;BME280;60113;48.762;12.302;2023-05-23T05:54:26;96937.97;;;19.09;66.45
72210;BME280;60113;48.762;12.302;2023-05-23T05:56:51;96941.59;;;19.16;66.83
72210;BME280;60113;48.762;12.302;2023-05-23T05:59:17;96942.47;;;19.32;66.04
72210;BME280;60113;48.762;12.302;2023-05-23T06:01:42;96938.69;;;19.41;66.13
72210;BME280;60113;48.762;12.302;2023-05-23T06:04:09;96936.81;;;19.65;66.13
72210;BME280;60113;48.762;12.302;2023-05-23T06:06:34;96931.59;;;19.72;65.95
72210;BME280;60113;48.762;12.302;2023-05-23T06:09:00;96929.72;;;19.72;65.50
72210;BME280;60113;48.762;12.302;2023-05-23T06:11:25;96943.69;;;19.59;65.99
72210;BME280;60113;48.762;12.302;2023-05-23T06:13:51;96937.09;;;19.70;65.77
72210;BME280;60113;48.762;12.302;2023-05-23T06:16:16;96938.38;;;19.74;66.45
72210;BME280;60113;48.762;12.302;2023-05-23T06:18:41;96948.84;;;19.91;66.51
72210;BME280;60113;48.762;12.302;2023-05-23T06:21:08;96948.94;;;19.98;65.90
72210;BME280;60113;48.762;12.302;2023-05-23T06:23:33;96943.53;;;20.06;66.36
72210;BME280;60113;48.762;12.302;2023-05-23T06:25:58;96945.66;;;20.26;65.85
72210;BME280;60113;48.762;12.302;2023-05-23T06:28:24;96955.00;;;20.37;65.47
72210;BME280;60113;48.762;12.302;2023-05-23T06:30:50;96954.63;;;20.40;65.52
72210;BME280;60113;48.762;12.302;2023-05-23T06:33:15;96948.28;;;20.41;64.91
72210;BME280;60113;48.762;12.302;2023-05-23T06:35:41;96937.41;;;20.43;65.37
72210;BME280;60113;48.762;12.302;2023-05-23T06:38:07;96954.06;;;20.45;65.47
72210;BME280;60113;48.762;12.302;2023-05-23T06:40:32;96948.41;;;20.55;65.37
72210;BME280;60113;48.762;12.302;2023-05-23T06:42:58;96948.00;;;20.73;64.74
72210;BME280;60113;48.762;12.302;2023-05-23T06:45:23;96954.78;;;20.91;65.18
72210;BME280;60113;48.762;12.302;2023-05-23T06:47:48;96952.38;;;20.96;63.56
72210;BME280;60113;48.762;12.302;2023-05-23T06:50:14;96957.63;;;21.11;63.57
72210;BME280;60113;48.762;12.302;2023-05-23T06:52:39;96956.19;;;21.08;63.80
72210;BME280;60113;48.762;12.302;2023-05-23T06:55:07;96958.81;;;20.86;64.31
72210;BME280;60113;48.762;12.302;2023-05-23T06:57:32;96973.56;;;20.60;64.28
72210;BME280;60113;48.762;12.302;2023-05-23T06:59:58;96977.91;;;20.01;64.43
72210;BME280;60113;48.762;12.302;2023-05-23T07:02:23;96978.72;;;19.86;64.74
72210;BME280;60113;48.762;12.302;2023-05-23T07:04:49;96982.31;;;19.79;64.49
72210;BME280;60113;48.762;12.302;2023-05-23T07:07:14;96982.84;;;19.59;65.26
72210;BME280;60113;48.762;12.302;2023-05-23T07:09:39;96986.78;;;19.63;65.25
72210;BME280;60113;48.762;12.302;2023-05-23T07:12:05;96994.59;;;19.65;66.06
72210;BME280;60113;48.762;12.302;2023-05-23T07:14:31;96992.53;;;19.90;64.81
72210;BME280;60113;48.762;12.302;2023-05-23T07:16:58;97000.66;;;20.12;64.71
72210;BME280;60113;48.762;12.302;2023-05-23T07:19:23;96992.16;;;19.93;65.02
72210;BME280;60113;48.762;12.302;2023-05-23T07:21:49;96997.59;;;20.00;65.09
72210;BME280;60113;48.762;12.302;2023-05-23T07:24:14;96996.75;;;19.84;65.48
72210;BME280;60113;48.762;12.302;2023-05-23T07:26:40;96985.16;;;19.77;65.30
72210;BME280;60113;48.762;12.302;2023-05-23T07:29:05;96997.25;;;19.65;65.17
72210;BME280;60113;48.762;12.302;2023-05-23T07:31:31;96995.06;;;19.68;65.68
72210;BME280;60113;48.762;12.302;2023-05-23T07:33:56;96986.72;;;19.86;65.14
72210;BME280;60113;48.762;12.302;2023-05-23T07:36:22;96977.03;;;20.09;64.67
72210;BME280;60113;48.762;12.302;2023-05-23T07:38:47;96976.69;;;20.49;63.50
72210;BME280;60113;48.762;12.302;2023-05-23T07:41:13;96979.47;;;20.78;64.57
72210;BME280;60113;48.762;12.302;2023-05-23T07:43:39;96980.97;;;21.24;63.15
72210;BME280;60113;48.762;12.302;2023-05-23T07:46:04;96972.25;;;21.66;63.10
72210;BME280;60113;48.762;12.302;2023-05-23T07:48:29;96969.09;;;21.55;63.00
72210;BME280;60113;48.762;12.302;2023-05-23T07:50:56;96975.19;;;21.49;62.57
72210;BME280;60113;48.762;12.302;2023-05-23T07:53:21;96966.47;;;21.33;61.97
72210;BME280;60113;48.762;12.302;2023-05-23T07:55:47;96966.78;;;21.23;62.03
72210;BME280;60113;48.762;12.302;2023-05-23T07:58:12;96967.38;;;21.47;62.04
72210;BME280;60113;48.762;12.302;2023-05-23T08:00:38;96958.25;;;21.64;62.59
72210;BME280;60113;48.762;12.302;2023-05-23T08:03:05;96960.25;;;21.83;62.25
72210;BME280;60113;48.762;12.302;2023-05-23T08:05:31;96959.25;;;21.84;61.35
72210;BME280;60113;48.762;12.302;2023-05-23T08:07:56;96955.47;;;22.14;61.97
72210;BME280;60113;48.762;12.302;2023-05-23T08:10:22;96958.06;;;22.43;61.83
72210;BME280;60113;48.762;12.302;2023-05-23T08:12:47;96963.53;;;22.21;58.81
72210;BME280;60113;48.762;12.302;2023-05-23T08:15:12;96964.19;;;22.23;59.09
72210;BME280;60113;48.762;12.302;2023-05-23T08:17:38;96962.84;;;22.05;59.04
72210;BME280;60113;48.762;12.302;2023-05-23T08:20:04;96971.91;;;22.11;60.60
72210;BME280;60113;48.762;12.302;2023-05-23T08:22:29;96975.22;;;22.13;59.41
72210;BME280;60113;48.762;12.302;2023-05-23T08:24:55;96979.84;;;22.33;60.44
72210;BME280;60113;48.762;12.302;2023-05-23T08:27:20;96981.88;;;22.66;60.43
72210;BME280;60113;48.762;12.302;2023-05-23T08:29:47;96985.19;;;22.75;59.18
72210;BME280;60113;48.762;12.302;2023-05-23T08:32:12;96994.06;;;22.76;58.65
72210;BME280;60113;48.762;12.302;2023-05-23T08:34:39;96979.00;;;22.68;57.76
72210;BME280;60113;48.762;12.302;2023-05-23T08:37:04;96985.69;;;22.08;58.94
72210;BME280;60113;48.762;12.302;2023-05-23T08:39:30;97000.28;;;21.98;59.88
72210;BME280;60113;48.762;12.302;2023-05-23T08:41:55;96998.59;;;21.69;58.45
72210;BME280;60113;48.762;12.302;2023-05-23T08:44:21;96998.34;;;21.64;59.85
72210;BME280;60113;48.762;12.302;2023-05-23T08:46:46;96996.72;;;21.63;60.12
72210;BME280;60113;48.762;12.302;2023-05-23T08:49:16;97000.94;;;21.79;58.99
72210;BME280;60113;48.762;12.302;2023-05-23T08:51:42;97008.75;;;22.09;59.13
72210;BME280;60113;48.762;12.302;2023-05-23T08:54:09;96993.50;;;22.52;58.47
72210;BME280;60113;48.762;12.302;2023-05-23T08:56:37;96989.06;;;22.66;57.49
72210;BME280;60113;48.762;12.302;2023-05-23T08:59:03;97006.22;;;22.92;55.67
72210;BME280;60113;48.762;12.302;2023-05-23T09:01:29;96997.84;;;23.35;56.60
72210;BME280;60113;48.762;12.302;2023-05-23T09:03:56;96996.44;;;23.73;55.10
72210;BME280;60113;48.762;12.302;2023-05-23T09:06:27;96999.13;;;23.67;56.00
72210;BME280;60113;48.762;12.302;2023-05-23T09:08:52;97004.03;;;23.83;56.31
72210;BME280;60113;48.762;12.302;2023-05-23T09:11:18;97003.88;;;23.71;54.52
72210;BME280;60113;48.762;12.302;2023-05-23T09:13:46;97012.75;;;23.52;55.70
72210;BME280;60113;48.762;12.302;2023-05-23T09:16:14;97020.34;;;23.34;55.78
72210;BME280;60113;48.762;12.302;2023-05-23T09:18:41;97015.94;;;23.00;57.65
72210;BME280;60113;48.762;12.302;2023-05-23T09:21:08;97009.88;;;22.70;56.80
72210;BME280;60113;48.762;12.302;2023-05-23T09:23:35;97009.56;;;22.45;57.87
72210;BME280;60113;48.762;12.302;2023-05-23T09:26:08;97008.28;;;22.41;57.34
72210;BME280;60113;48.762;12.302;2023-05-23T09:28:33;97007.28;;;22.48;56.73
72210;BME280;60113;48.762;12.302;2023-05-23T09:31:00;97004.13;;;22.67;57.61
72210;BME280;60113;48.762;12.302;2023-05-23T09:33:47;97006.25;;;22.98;57.12
72210;BME280;60113;48.762;12.302;2023-05-23T09:36:14;97008.91;;;22.92;55.96
72210;BME280;60113;48.762;12.302;2023-05-23T09:38:40;97001.94;;;22.97;56.30
72210;BME280;60113;48.762;12.302;2023-05-23T09:41:07;97009.13;;;22.83;56.87
72210;BME280;60113;48.762;12.302;2023-05-23T09:43:33;97004.78;;;22.89;57.30
72210;BME280;60113;48.762;12.302;2023-05-23T09:46:10;97008.41;;;22.61;53.67
72210;BME280;60113;48.762;12.302;2023-05-23T09:48:36;97017.34;;;22.82;55.57
72210;BME280;60113;48.762;12.302;2023-05-23T09:51:03;97007.94;;;23.20;55.25
72210;BME280;60113;48.762;12.302;2023-05-23T09:53:29;96967.53;;;23.35;54.66
72210;BME280;60113;48.762;12.302;2023-05-23T09:55:55;97016.25;;;23.45;54.88
72210;BME280;60113;48.762;12.302;2023-05-23T09:58:24;97009.63;;;23.48;54.16
72210;BME280;60113;48.762;12.302;2023-05-23T10:00:51;97019.34;;;23.42;52.35
72210;BME280;60113;48.762;12.302;2023-05-23T10:03:26;97012.41;;;22.92;53.64
72210;BME280;60113;48.762;12.302;2023-05-23T10:06:07;97013.72;;;22.54;54.81
72210;BME280;60113;48.762;12.302;2023-05-23T10:08:43;97013.28;;;22.08;56.16
72210;BME280;60113;48.762;12.302;2023-05-23T10:13:40;97010.59;;;22.08;56.83
72210;BME280;60113;48.762;12.302;2023-05-23T10:16:18;97008.56;;;22.10;55.07
72210;BME280;60113;48.762;12.302;2023-05-23T10:18:44;97006.41;;;21.92;55.87
72210;BME280;60113;48.762;12.302;2023-05-23T10:21:18;97010.13;;;21.98;56.68
72210;BME280;60113;48.762;12.302;2023-05-23T10:23:49;97008.25;;;21.92;55.69
72210;BME280;60113;48.762;12.302;2023-05-23T10:26:16;97004.72;;;22.20;56.68
72210;BME280;60113;48.762;12.302;2023-05-23T10:28:45;97010.38;;;22.39;56.61
72210;BME280;60113;48.762;12.302;2023-05-23T10:31:11;97007.19;;;22.28;56.92
72210;BME280;60113;48.762;12.302;2023-05-23T10:33:41;97015.91;;;22.02;56.21
72210;BME280;60113;48.762;12.302;2023-05-23T10:36:18;96994.81;;;21.85;54.68
72210;BME280;60113;48.762;12.302;2023-05-23T10:41:22;97002.19;;;21.54;55.41
72210;BME280;60113;48.762;12.302;2023-05-23T10:46:57;96986.19;;;21.83;54.55
72210;BME280;60113;48.762;12.302;2023-05-23T10:49:45;96991.03;;;22.01;54.50
72210;BME280;60113;48.762;12.302;2023-05-23T10:52:13;96994.31;;;22.39;54.62
72210;BME280;60113;48.762;12.302;2023-05-23T10:57:15;96980.91;;;22.94;52.78
72210;BME280;60113;48.762;12.302;2023-05-23T10:59:41;96990.41;;;23.04;52.43
72210;BME280;60113;48.762;12.302;2023-05-23T11:02:14;96988.53;;;23.04;52.82
72210;BME280;60113;48.762;12.302;2023-05-23T11:04:40;96985.16;;;22.62;52.74
72210;BME280;60113;48.762;12.302;2023-05-23T11:07:32;96986.13;;;22.11;54.06
72210;BME280;60113;48.762;12.302;2023-05-23T11:10:11;96992.72;;;22.16;53.45
72210;BME280;60113;48.762;12.302;2023-05-23T11:12:40;96981.91;;;22.31;53.50
72210;BME280;60113;48.762;12.302;2023-05-23T11:15:24;96977.56;;;22.65;51.76
72210;BME280;60113;48.762;12.302;2023-05-23T11:17:54;96980.31;;;22.99;52.20
72210;BME280;60113;48.762;12.302;2023-05-23T11:20:23;96986.06;;;23.03;50.19
72210;BME280;60113;48.762;12.302;2023-05-23T11:23:06;96984.84;;;23.19;49.57
72210;BME280;60113;48.762;12.302;2023-05-23T11:25:44;96981.72;;;22.88;49.67
72210;BME280;60113;48.762;12.302;2023-05-23T11:28:12;96988.09;;;22.80;50.10
72210;BME280;60113;48.762;12.302;2023-05-23T11:30:38;96983.19;;;23.04;50.77
72210;BME280;60113;48.762;12.302;2023-05-23T11:33:09;96986.53;;;23.33;50.38
72210;BME280;60113;48.762;12.302;2023-05-23T11:35:44;96981.38;;;23.59;50.66
72210;BME280;60113;48.762;12.302;2023-05-23T11:38:10;96992.47;;;23.90;50.83
72210;BME280;60113;48.762;12.302;2023-05-23T11:40:40;96995.78;;;23.92;48.68
72210;BME280;60113;48.762;12.302;2023-05-23T11:43:08;96990.88;;;23.68;49.85
72210;BME280;60113;48.762;12.302;2023-05-23T11:45:35;96994.38;;;23.55;50.05
72210;BME280;60113;48.762;12.302;2023-05-23T11:48:08;96996.44;;;23.46;50.89
72210;BME280;60113;48.762;12.302;2023-05-23T11:50:52;96991.44;;;23.09;50.92
72210;BME280;60113;48.762;12.302;2023-05-23T11:53:20;97001.88;;;22.84;50.34
72210;BME280;60113;48.762;12.302;2023-05-23T11:55:50;96996.38;;;23.13;51.88
72210;BME280;60113;48.762;12.302;2023-05-23T11:58:19;96983.44;;;23.30;48.89
72210;BME280;60113;48.762;12.302;2023-05-23T12:00:44;96996.66;;;23.45;50.72
72210;BME280;60113;48.762;12.302;2023-05-23T12:03:10;97007.38;;;23.58;50.29
72210;BME280;60113;48.762;12.302;2023-05-23T12:05:36;96998.72;;;23.77;49.60
72210;BME280;60113;48.762;12.302;2023-05-23T12:08:02;96997.66;;;23.84;48.55
72210;BME280;60113;48.762;12.302;2023-05-23T12:10:28;96993.31;;;23.90;48.31
72210;BME280;60113;48.762;12.302;2023-05-23T12:12:57;97000.56;;;23.56;48.88
72210;BME280;60113;48.762;12.302;2023-05-23T12:15:32;97004.47;;;23.80;50.40
72210;BME280;60113;48.762;12.302;2023-05-23T12:17:58;96996.44;;;23.53;49.40
72210;BME280;60113;48.762;12.302;2023-05-23T12:20:25;97005.72;;;23.64;49.42
72210;BME280;60113;48.762;12.302;2023-05-23T12:22:53;97000.75;;;23.75;49.31
72210;BME280;60113;48.762;12.302;2023-05-23T12:25:18;96998.91;;;23.48;51.66
72210;BME280;60113;48.762;12.302;2023-05-23T12:27:43;97003.22;;;23.29;51.25
72210;BME280;60113;48.762;12.302;2023-05-23T12:30:15;97007.75;;;23.35;49.20
72210;BME280;60113;48.762;12.302;2023-05-23T12:32:45;97007.34;;;23.38;49.27
72210;BME280;60113;48.762;12.302;2023-05-23T12:35:12;97006.34;;;23.39;49.83
72210;BME280;60113;48.762;12.302;2023-05-23T12:37:43;97006.91;;;23.14;50.62
72210;BME280;60113;48.762;12.302;2023-05-23T12:42:55;96999.50;;;23.16;49.51
72210;BME280;60113;48.762;12.302;2023-05-23T12:45:30;96998.66;;;23.02;49.99
72210;BME280;60113;48.762;12.302;2023-05-23T12:47:56;97003.53;;;22.78;49.59
72210;BME280;60113;48.762;12.302;2023-05-23T12:50:21;97005.47;;;22.49;49.55
72210;BME280;60113;48.762;12.302;2023-05-23T12:52:46;97008.09;;;22.42;51.04
72210;BME280;60113;48.762;12.302;2023-05-23T12:55:12;97007.25;;;22.35;50.15
72210;BME280;60113;48.762;12.302;2023-05-23T12:57:37;97014.13;;;22.51;49.56
72210;BME280;60113;48.762;12.302;2023-05-23T13:00:04;97014.00;;;22.66;48.67
72210;BME280;60113;48.762;12.302;2023-05-23T13:02:30;97000.69;;;23.00;48.23
72210;BME280;60113;48.762;12.302;2023-05-23T13:04:56;96994.38;;;23.48;48.67
72210;BME280;60113;48.762;12.302;2023-05-23T13:07:22;97000.56;;;23.69;48.09